Time;durP1;ratioP1;P1;durP2;ratioP2;P2;SDS_P1;SDS_P2;PMS_P1;PMS_P2;Temp;Humidity;BMP_temperature;BMP_pressure;BME280_temperature;BME280_humidity;BME280_pressure;Samples;Min_cycle;Max_cycle;Signal;HPM_P1;HPM_P2
2021/11/27 00:00:37;;;;;;;7.63;6.50;;;;;;;;;;5000741;28;20269;-70
2021/11/27 00:03:03;;;;;;;8.77;7.27;;;;;;;;;;5001603;28;20579;-70
2021/11/27 00:05:33;;;;;;;10.50;8.40;;;;;;;;;;5000556;28;20220;-70
2021/11/27 00:08:00;;;;;;;10.27;8.57;;;;;;;;;;4999788;28;20749;-70
2021/11/27 00:10:29;;;;;;;11.63;9.60;;;;;;;;;;5001056;28;20216;-70
2021/11/27 00:12:56;;;;;;;14.97;10.67;;;;;;;;;;5000381;28;20216;-70
2021/11/27 00:15:25;;;;;;;16.90;12.20;;;;;;;;;;4999843;28;20212;-70
2021/11/27 00:17:52;;;;;;;15.30;11.43;;;;;;;;;;5000245;28;20230;-70
2021/11/27 00:20:21;;;;;;;18.57;13.27;;;;;;;;;;5000203;28;20208;-70
2021/11/27 00:22:48;;;;;;;17.20;12.83;;;;;;;;;;4999968;28;20216;-70
2021/11/27 00:25:16;;;;;;;16.80;12.60;;;;;;;;;;5000209;28;20591;-70
2021/11/27 00:27:43;;;;;;;16.80;12.20;;;;;;;;;;5000294;28;20270;-70
2021/11/27 00:30:13;;;;;;;16.13;12.03;;;;;;;;;;4999523;28;20307;-70
2021/11/27 00:32:41;;;;;;;13.10;11.00;;;;;;;;;;4999603;28;20228;-70
2021/11/27 00:35:08;;;;;;;17.83;11.90;;;;;;;;;;5000628;28;20216;-69
2021/11/27 00:37:35;;;;;;;16.40;12.43;;;;;;;;;;5000186;28;20215;-70
2021/11/27 00:40:02;;;;;;;16.57;12.00;;;;;;;;;;5000069;28;20220;-70
2021/11/27 00:42:28;;;;;;;15.90;12.73;;;;;;;;;;4999875;28;20212;-70
2021/11/27 00:44:54;;;;;;;15.87;11.77;;;;;;;;;;4999941;28;20258;-70
2021/11/27 00:47:21;;;;;;;19.57;13.13;;;;;;;;;;4998541;28;20502;-70
2021/11/27 00:49:53;;;;;;;20.50;13.70;;;;;;;;;;5000851;28;20208;-70
2021/11/27 00:52:19;;;;;;;15.37;12.33;;;;;;;;;;5000249;28;20361;-71
2021/11/27 00:54:46;;;;;;;21.63;13.57;;;;;;;;;;4999740;28;20816;-71
2021/11/27 00:57:12;;;;;;;21.13;13.80;;;;;;;;;;5000117;28;20208;-71
2021/11/27 00:59:39;;;;;;;19.43;13.53;;;;;;;;;;5000141;28;20262;-70
2021/11/27 01:02:05;;;;;;;16.73;12.63;;;;;;;;;;5003042;28;20681;-71
2021/11/27 01:04:32;;;;;;;19.83;13.77;;;;;;;;;;5003906;28;20211;-71
2021/11/27 01:07:00;;;;;;;18.20;13.63;;;;;;;;;;5004758;28;21181;-71
2021/11/27 01:09:27;;;;;;;19.87;14.83;;;;;;;;;;5003289;28;20207;-71
2021/11/27 01:11:56;;;;;;;19.37;14.20;;;;;;;;;;5004138;28;20278;-71
2021/11/27 01:14:25;;;;;;;17.63;14.33;;;;;;;;;;5003977;28;20208;-70
2021/11/27 01:16:55;;;;;;;19.97;13.33;;;;;;;;;;5003313;28;20216;-70
2021/11/27 01:19:23;;;;;;;19.57;14.60;;;;;;;;;;5002836;28;20240;-70
2021/11/27 01:21:57;;;;;;;21.87;16.27;;;;;;;;;;5004279;28;21089;-69
2021/11/27 01:24:26;;;;;;;19.00;14.67;;;;;;;;;;5003368;28;20216;-69
2021/11/27 01:26:54;;;;;;;25.67;16.40;;;;;;;;;;5002724;28;20238;-69
2021/11/27 01:29:20;;;;;;;25.80;17.60;;;;;;;;;;5004021;28;20758;-71
2021/11/27 01:31:47;;;;;;;24.60;16.40;;;;;;;;;;5003663;28;20639;-72
2021/11/27 01:34:13;;;;;;;19.20;14.80;;;;;;;;;;5002679;28;20955;-72
2021/11/27 01:36:40;;;;;;;27.97;17.80;;;;;;;;;;5004262;28;20242;-72
2021/11/27 01:39:07;;;;;;;21.20;14.63;;;;;;;;;;5002827;28;20215;-72
2021/11/27 01:41:36;;;;;;;25.87;15.03;;;;;;;;;;5002969;28;20967;-70
2021/11/27 01:44:04;;;;;;;23.53;15.93;;;;;;;;;;5003807;28;20224;-70
2021/11/27 01:46:31;;;;;;;22.33;15.70;;;;;;;;;;5003411;28;20220;-70
2021/11/27 01:48:58;;;;;;;22.80;14.67;;;;;;;;;;5002175;28;20239;-69
2021/11/27 01:51:25;;;;;;;22.37;14.53;;;;;;;;;;5003315;28;20742;-70
2021/11/27 01:53:56;;;;;;;21.23;13.60;;;;;;;;;;5003326;28;20220;-70
2021/11/27 01:56:25;;;;;;;22.37;12.27;;;;;;;;;;5002442;28;20718;-70
2021/11/27 01:58:53;;;;;;;18.63;12.87;;;;;;;;;;5002926;28;20553;-70
2021/11/27 02:01:23;;;;;;;18.57;12.83;;;;;;;;;;5003058;28;20212;-70
2021/11/27 02:03:50;;;;;;;21.23;12.37;;;;;;;;;;5002637;28;20261;-70
2021/11/27 02:06:19;;;;;;;20.27;13.40;;;;;;;;;;5002553;28;20208;-73
2021/11/27 02:08:51;;;;;;;20.33;12.93;;;;;;;;;;5003493;28;20232;-70
2021/11/27 02:11:20;;;;;;;19.07;11.37;;;;;;;;;;5002516;28;20222;-70
2021/11/27 02:13:47;;;;;;;18.83;11.80;;;;;;;;;;5002349;28;20278;-70
2021/11/27 02:16:15;;;;;;;20.00;11.27;;;;;;;;;;5002426;28;20655;-70
2021/11/27 02:18:41;;;;;;;15.77;10.47;;;;;;;;;;5002723;28;20739;-70
2021/11/27 02:21:12;;;;;;;17.77;10.50;;;;;;;;;;5001735;28;20212;-70
2021/11/27 02:23:39;;;;;;;13.27;9.37;;;;;;;;;;5003590;28;20605;-70
2021/11/27 02:26:07;;;;;;;12.00;8.70;;;;;;;;;;5002475;28;20212;-70
2021/11/27 02:28:36;;;;;;;18.23;9.57;;;;;;;;;;5002247;28;20224;-71
2021/11/27 02:31:04;;;;;;;12.00;7.33;;;;;;;;;;5002146;28;20301;-70
2021/11/27 02:33:30;;;;;;;13.83;7.23;;;;;;;;;;5002893;28;20306;-69
2021/11/27 02:35:57;;;;;;;11.90;7.50;;;;;;;;;;5001883;28;20343;-70
2021/11/27 02:38:25;;;;;;;8.60;6.60;;;;;;;;;;5002580;28;20246;-70
2021/11/27 02:40:52;;;;;;;12.73;7.13;;;;;;;;;;5002956;28;20212;-70
2021/11/27 02:43:19;;;;;;;13.70;7.03;;;;;;;;;;5001541;28;20651;-70
2021/11/27 02:45:45;;;;;;;15.27;7.40;;;;;;;;;;5001849;28;20211;-69
2021/11/27 02:48:12;;;;;;;13.60;8.17;;;;;;;;;;5001802;28;20322;-70
2021/11/27 02:50:38;;;;;;;14.93;7.33;;;;;;;;;;5002051;28;20215;-70
2021/11/27 02:53:05;;;;;;;10.27;7.00;;;;;;;;;;5001267;28;20242;-70
2021/11/27 02:55:33;;;;;;;18.70;7.93;;;;;;;;;;5002592;28;20286;-70
2021/11/27 02:58:00;;;;;;;17.40;9.27;;;;;;;;;;5000846;28;20778;-71
2021/11/27 03:00:26;;;;;;;15.40;8.13;;;;;;;;;;5001303;28;20558;-70
2021/11/27 03:02:53;;;;;;;13.97;8.60;;;;;;;;;;5001797;28;20694;-70
2021/11/27 03:05:19;;;;;;;19.70;8.40;;;;;;;;;;5001820;28;20224;-70
2021/11/27 03:07:46;;;;;;;13.70;8.30;;;;;;;;;;5001397;28;20232;-70
2021/11/27 03:10:16;;;;;;;16.37;8.63;;;;;;;;;;5001990;28;20208;-70
2021/11/27 03:12:43;;;;;;;12.27;7.97;;;;;;;;;;5001894;28;20274;-70
2021/11/27 03:15:12;;;;;;;16.90;8.23;;;;;;;;;;5000511;28;20266;-70
2021/11/27 03:17:40;;;;;;;11.70;7.13;;;;;;;;;;5000992;28;20224;-70
2021/11/27 03:20:09;;;;;;;14.93;5.97;;;;;;;;;;5001771;28;20222;-70
2021/11/27 03:22:35;;;;;;;10.97;5.37;;;;;;;;;;5000925;28;20204;-70
2021/11/27 03:25:02;;;;;;;11.17;6.00;;;;;;;;;;5000998;28;20223;-70
2021/11/27 03:27:29;;;;;;;10.83;5.40;;;;;;;;;;5001786;28;20223;-70
2021/11/27 03:29:58;;;;;;;11.57;4.43;;;;;;;;;;5001035;28;20734;-70
2021/11/27 03:32:25;;;;;;;6.70;3.40;;;;;;;;;;5000724;28;20232;-70
2021/11/27 03:34:53;;;;;;;8.90;4.20;;;;;;;;;;5001571;28;20355;-70
2021/11/27 03:37:20;;;;;;;7.83;3.37;;;;;;;;;;5000284;28;20418;-70
2021/11/27 03:39:46;;;;;;;6.43;2.43;;;;;;;;;;5000720;28;20262;-70
2021/11/27 03:42:16;;;;;;;6.40;2.80;;;;;;;;;;5000076;28;20290;-70
2021/11/27 03:44:43;;;;;;;8.60;2.47;;;;;;;;;;5001350;28;20273;-75
2021/11/27 03:47:11;;;;;;;7.30;2.47;;;;;;;;;;5000045;28;20262;-70
2021/11/27 03:49:38;;;;;;;8.70;2.77;;;;;;;;;;5001170;28;20243;-70
2021/11/27 03:52:05;;;;;;;9.30;2.80;;;;;;;;;;5001348;28;20204;-70
2021/11/27 03:54:31;;;;;;;6.33;2.80;;;;;;;;;;5000253;28;20218;-70
2021/11/27 03:56:58;;;;;;;6.07;2.60;;;;;;;;;;5001100;28;21314;-70
2021/11/27 03:59:26;;;;;;;8.33;2.47;;;;;;;;;;5001108;28;20841;-70
2021/11/27 04:01:53;;;;;;;8.20;2.60;;;;;;;;;;5000573;28;20658;-70
2021/11/27 04:04:22;;;;;;;10.60;3.40;;;;;;;;;;4999687;28;20224;-71
2021/11/27 04:06:49;;;;;;;5.77;2.03;;;;;;;;;;5001378;28;20211;-71
2021/11/27 04:09:16;;;;;;;6.50;2.60;;;;;;;;;;4999729;28;20848;-70
2021/11/27 04:11:43;;;;;;;6.10;2.40;;;;;;;;;;5000400;28;20262;-71
2021/11/27 04:14:10;;;;;;;5.20;2.13;;;;;;;;;;5000452;28;20262;-71
2021/11/27 04:16:37;;;;;;;4.50;1.90;;;;;;;;;;5000768;28;20720;-71
2021/11/27 04:19:03;;;;;;;10.47;2.50;;;;;;;;;;4999359;28;20853;-70
2021/11/27 04:21:31;;;;;;;6.93;2.23;;;;;;;;;;5001448;28;20216;-71
2021/11/27 04:23:57;;;;;;;4.60;2.00;;;;;;;;;;5000252;28;20266;-71
2021/11/27 04:26:24;;;;;;;6.60;2.20;;;;;;;;;;5000193;28;20239;-70
2021/11/27 04:28:52;;;;;;;4.80;1.83;;;;;;;;;;5001057;28;20896;-71
2021/11/27 04:31:18;;;;;;;5.50;2.10;;;;;;;;;;5001109;28;20220;-70
2021/11/27 04:33:45;;;;;;;7.47;2.00;;;;;;;;;;5000234;28;20232;-70
2021/11/27 04:36:11;;;;;;;5.37;2.03;;;;;;;;;;4999991;28;20216;-72
2021/11/27 04:38:39;;;;;;;3.17;1.77;;;;;;;;;;5000444;28;20353;-70
2021/11/27 04:41:06;;;;;;;6.43;1.73;;;;;;;;;;4999833;28;20738;-70
2021/11/27 04:43:33;;;;;;;4.37;1.50;;;;;;;;;;5000290;28;20307;-70
2021/11/27 04:45:59;;;;;;;5.23;1.80;;;;;;;;;;5001031;28;21083;-70
2021/11/27 04:48:26;;;;;;;3.17;1.00;;;;;;;;;;4999316;28;20294;-70
2021/11/27 04:50:52;;;;;;;3.27;1.40;;;;;;;;;;4999956;28;20216;-70
2021/11/27 04:53:20;;;;;;;7.60;1.40;;;;;;;;;;5000667;28;20219;-70
2021/11/27 04:55:48;;;;;;;3.50;1.27;;;;;;;;;;4999804;28;20670;-70
2021/11/27 04:58:14;;;;;;;4.90;1.57;;;;;;;;;;4999663;28;20205;-71
2021/11/27 05:00:43;;;;;;;5.40;1.33;;;;;;;;;;5000948;28;20710;-71
2021/11/27 05:03:09;;;;;;;6.80;1.50;;;;;;;;;;4998967;28;20232;-71
2021/11/27 05:05:36;;;;;;;5.13;1.10;;;;;;;;;;5000045;28;20211;-74
2021/11/27 05:08:03;;;;;;;3.20;1.40;;;;;;;;;;5000822;28;20270;-73
2021/11/27 05:10:29;;;;;;;3.43;1.10;;;;;;;;;;4999501;28;20671;-71
2021/11/27 05:12:57;;;;;;;1.93;0.80;;;;;;;;;;4999616;28;20774;-71
2021/11/27 05:15:24;;;;;;;6.50;1.20;;;;;;;;;;5000478;28;20216;-71
2021/11/27 05:17:51;;;;;;;2.67;1.00;;;;;;;;;;4999280;28;20228;-71
2021/11/27 05:20:17;;;;;;;2.07;0.83;;;;;;;;;;4999272;28;20212;-71
2021/11/27 05:22:44;;;;;;;2.43;0.80;;;;;;;;;;5000503;28;20220;-72
2021/11/27 05:25:10;;;;;;;2.73;0.93;;;;;;;;;;4999518;28;20262;-70
2021/11/27 05:27:38;;;;;;;4.17;0.93;;;;;;;;;;4999451;28;20271;-70
2021/11/27 05:30:09;;;;;;;1.40;0.80;;;;;;;;;;4999653;28;20209;-70
2021/11/27 05:32:51;;;;;;;3.00;0.90;;;;;;;;;;4999964;28;20251;-75
2021/11/27 05:35:18;;;;;;;2.83;0.80;;;;;;;;;;4999293;28;20212;-75
2021/11/27 05:37:45;;;;;;;2.83;0.90;;;;;;;;;;4999757;28;20215;-76
2021/11/27 05:40:13;;;;;;;2.53;0.80;;;;;;;;;;4999972;28;20307;-76
2021/11/27 05:42:40;;;;;;;1.97;0.70;;;;;;;;;;4998716;28;20266;-76
2021/11/27 05:45:08;;;;;;;6.00;0.90;;;;;;;;;;4998969;28;20220;-76
2021/11/27 05:47:35;;;;;;;2.60;0.70;;;;;;;;;;5000785;28;20659;-76
2021/11/27 05:50:01;;;;;;;2.37;0.90;;;;;;;;;;5002570;28;21197;-75
2021/11/27 05:52:28;;;;;;;3.20;0.80;;;;;;;;;;5002749;28;20216;-76
2021/11/27 05:54:54;;;;;;;2.57;0.73;;;;;;;;;;5003874;28;20212;-76
2021/11/27 05:57:20;;;;;;;1.97;0.90;;;;;;;;;;5002633;28;20733;-76
2021/11/27 05:59:47;;;;;;;4.77;1.30;;;;;;;;;;5002744;28;20208;-76
2021/11/27 06:02:16;;;;;;;1.53;0.77;;;;;;;;;;5003458;28;20247;-77
2021/11/27 06:04:42;;;;;;;4.87;1.03;;;;;;;;;;5002920;28;20219;-76
2021/11/27 06:07:08;;;;;;;1.77;0.97;;;;;;;;;;5002185;28;20315;-76
2021/11/27 06:09:35;;;;;;;2.47;0.50;;;;;;;;;;5003320;28;20649;-76
2021/11/27 06:12:01;;;;;;;2.37;1.30;;;;;;;;;;5002507;28;20266;-76
2021/11/27 06:14:28;;;;;;;2.10;0.63;;;;;;;;;;5002306;28;20309;-77
2021/11/27 06:16:55;;;;;;;1.90;0.80;;;;;;;;;;5003486;28;20266;-76
2021/11/27 06:19:22;;;;;;;2.03;0.70;;;;;;;;;;5002035;28;20337;-77
2021/11/27 06:21:49;;;;;;;2.10;0.73;;;;;;;;;;5002136;28;20216;-76
2021/11/27 06:24:15;;;;;;;1.73;0.60;;;;;;;;;;5002516;28;20215;-76
2021/11/27 06:26:42;;;;;;;2.80;0.70;;;;;;;;;;5002541;28;20215;-76
2021/11/27 06:29:08;;;;;;;1.77;0.73;;;;;;;;;;5001657;28;20224;-76
2021/11/27 06:31:35;;;;;;;2.07;0.53;;;;;;;;;;5002486;28;20215;-76
2021/11/27 06:34:01;;;;;;;1.73;0.53;;;;;;;;;;5001975;28;20231;-76
2021/11/27 06:36:29;;;;;;;0.97;0.50;;;;;;;;;;5001426;28;20224;-76
2021/11/27 06:38:55;;;;;;;2.73;0.40;;;;;;;;;;5002871;28;20212;-76
2021/11/27 06:41:22;;;;;;;1.33;0.40;;;;;;;;;;5002489;28;20243;-76
2021/11/27 06:43:48;;;;;;;3.07;0.53;;;;;;;;;;5001470;28;20219;-76
2021/11/27 06:46:15;;;;;;;5.30;0.70;;;;;;;;;;5001865;28;20274;-76
2021/11/27 06:48:41;;;;;;;1.10;0.50;;;;;;;;;;5001947;28;20236;-76
2021/11/27 06:51:07;;;;;;;1.93;0.50;;;;;;;;;;5001305;28;20270;-76
2021/11/27 06:53:35;;;;;;;2.57;0.80;;;;;;;;;;5001666;28;20663;-76
2021/11/27 06:56:03;;;;;;;2.20;0.80;;;;;;;;;;5002277;28;20683;-74
2021/11/27 06:58:29;;;;;;;3.40;1.40;;;;;;;;;;5001254;28;20212;-73
2021/11/27 07:00:55;;;;;;;2.57;0.80;;;;;;;;;;4999934;28;20239;-74
2021/11/27 07:03:22;;;;;;;1.90;1.07;;;;;;;;;;5002638;28;20224;-73
2021/11/27 07:05:48;;;;;;;1.90;0.90;;;;;;;;;;5005841;28;20215;-73
2021/11/27 07:08:15;;;;;;;2.07;0.83;;;;;;;;;;5002670;28;20227;-74
2021/11/27 07:10:43;;;;;;;1.90;0.80;;;;;;;;;;5002117;28;20684;-74
2021/11/27 07:13:10;;;;;;;2.23;0.70;;;;;;;;;;4999921;28;20555;-73
2021/11/27 07:15:36;;;;;;;2.27;0.70;;;;;;;;;;5001208;28;20220;-74
2021/11/27 07:18:03;;;;;;;3.40;0.87;;;;;;;;;;4998747;28;20232;-74
2021/11/27 07:20:30;;;;;;;4.00;0.80;;;;;;;;;;4999061;28;20659;-75
2021/11/27 07:22:56;;;;;;;1.43;1.27;;;;;;;;;;4999919;28;20223;-74
2021/11/27 07:25:23;;;;;;;2.10;0.70;;;;;;;;;;4998295;28;20246;-75
2021/11/27 07:27:50;;;;;;;3.63;1.03;;;;;;;;;;4999243;28;20738;-74
2021/11/27 07:30:17;;;;;;;2.40;1.30;;;;;;;;;;4998295;28;20447;-74
2021/11/27 07:32:43;;;;;;;2.97;1.43;;;;;;;;;;4998664;28;20238;-74
2021/11/27 07:35:10;;;;;;;1.63;1.27;;;;;;;;;;4999730;28;20582;-75
2021/11/27 07:37:36;;;;;;;2.07;1.07;;;;;;;;;;4999210;28;20242;-74
2021/11/27 07:40:03;;;;;;;2.67;1.10;;;;;;;;;;4999737;28;20215;-75
2021/11/27 07:42:30;;;;;;;5.07;1.60;;;;;;;;;;4997244;28;20235;-75
2021/11/27 07:44:58;;;;;;;3.73;1.40;;;;;;;;;;4999048;28;20212;-75
2021/11/27 07:47:24;;;;;;;2.97;1.70;;;;;;;;;;4998438;28;20224;-75
2021/11/27 07:49:50;;;;;;;2.47;1.70;;;;;;;;;;4998638;28;20872;-75
2021/11/27 07:52:21;;;;;;;4.37;1.57;;;;;;;;;;4998823;28;20259;-75
2021/11/27 07:54:48;;;;;;;4.77;1.77;;;;;;;;;;4998542;28;20211;-75
2021/11/27 07:57:14;;;;;;;4.00;1.70;;;;;;;;;;4999004;28;20223;-77
2021/11/27 07:59:41;;;;;;;2.43;1.80;;;;;;;;;;4998642;28;20274;-78
2021/11/27 08:02:08;;;;;;;4.33;1.87;;;;;;;;;;4997757;28;20219;-77
2021/11/27 08:04:35;;;;;;;4.03;1.90;;;;;;;;;;4996908;28;20208;-75
2021/11/27 08:07:01;;;;;;;3.20;1.60;;;;;;;;;;4998793;28;20216;-76
2021/11/27 08:09:28;;;;;;;3.30;2.17;;;;;;;;;;4996829;28;20227;-76
2021/11/27 08:11:54;;;;;;;3.40;2.00;;;;;;;;;;4996847;28;20311;-75
2021/11/27 08:14:21;;;;;;;3.00;1.97;;;;;;;;;;4997901;28;20606;-75
2021/11/27 08:16:48;;;;;;;3.53;1.80;;;;;;;;;;4999047;28;20278;-76
2021/11/27 08:19:15;;;;;;;3.70;1.60;;;;;;;;;;4996758;28;20564;-75
2021/11/27 08:21:42;;;;;;;3.47;1.57;;;;;;;;;;4999326;28;20215;-75
2021/11/27 08:24:08;;;;;;;1.70;1.20;;;;;;;;;;4997017;28;20222;-76
2021/11/27 08:26:35;;;;;;;2.80;1.10;;;;;;;;;;4998519;28;20220;-76
2021/11/27 08:29:01;;;;;;;3.87;1.53;;;;;;;;;;4998030;28;20563;-78
2021/11/27 08:31:28;;;;;;;5.97;2.07;;;;;;;;;;4998027;28;20219;-77
2021/11/27 08:33:54;;;;;;;2.93;1.57;;;;;;;;;;4998573;28;20231;-76
2021/11/27 08:36:22;;;;;;;1.83;1.10;;;;;;;;;;4996469;28;20231;-77
2021/11/27 08:38:49;;;;;;;4.33;1.40;;;;;;;;;;4997752;28;20654;-77
2021/11/27 08:41:15;;;;;;;2.43;1.07;;;;;;;;;;4996005;28;20219;-76
2021/11/27 08:43:42;;;;;;;2.47;0.80;;;;;;;;;;4996252;28;20224;-76
2021/11/27 08:46:08;;;;;;;2.67;1.07;;;;;;;;;;4996382;28;20679;-76
2021/11/27 08:48:37;;;;;;;3.43;1.33;;;;;;;;;;4996038;28;20711;-75
2021/11/27 08:51:05;;;;;;;2.90;1.60;;;;;;;;;;4997937;28;20280;-76
2021/11/27 08:53:33;;;;;;;3.47;1.80;;;;;;;;;;4998010;28;20342;-76
2021/11/27 08:55:59;;;;;;;3.87;1.93;;;;;;;;;;4997927;28;20729;-75
2021/11/27 08:58:26;;;;;;;3.97;1.83;;;;;;;;;;4998016;28;21032;-75
2021/11/27 09:00:53;;;;;;;5.03;1.97;;;;;;;;;;4997353;28;20223;-75
2021/11/27 09:03:20;;;;;;;3.87;2.10;;;;;;;;;;4997859;28;20702;-75
2021/11/27 09:05:46;;;;;;;3.00;2.07;;;;;;;;;;4997207;28;20204;-75
2021/11/27 09:08:13;;;;;;;3.00;1.37;;;;;;;;;;4997176;28;20321;-75
2021/11/27 09:10:41;;;;;;;2.97;1.47;;;;;;;;;;4997269;28;20249;-75
2021/11/27 09:13:08;;;;;;;2.37;1.17;;;;;;;;;;4996261;28;20220;-75
2021/11/27 09:15:35;;;;;;;3.83;1.13;;;;;;;;;;4998150;28;20641;-75
2021/11/27 09:18:02;;;;;;;2.20;1.37;;;;;;;;;;4996727;28;20719;-75
2021/11/27 09:20:32;;;;;;;1.60;1.20;;;;;;;;;;4997828;28;20303;-74
2021/11/27 09:22:58;;;;;;;1.63;0.93;;;;;;;;;;5000233;28;20207;-75
2021/11/27 09:25:25;;;;;;;2.00;0.90;;;;;;;;;;5001670;28;20226;-75
2021/11/27 09:27:53;;;;;;;4.00;1.10;;;;;;;;;;5000713;28;20216;-75
2021/11/27 09:30:19;;;;;;;2.90;0.90;;;;;;;;;;5001590;28;20231;-75
2021/11/27 09:32:46;;;;;;;1.50;0.80;;;;;;;;;;5000674;28;20319;-76
2021/11/27 09:35:12;;;;;;;0.50;0.40;;;;;;;;;;5000912;28;20227;-74
2021/11/27 09:37:39;;;;;;;2.70;0.50;;;;;;;;;;5001869;28;20215;-75
2021/11/27 09:40:07;;;;;;;1.57;0.67;;;;;;;;;;5000833;28;20215;-74
2021/11/27 09:42:35;;;;;;;1.47;0.57;;;;;;;;;;5000877;28;20219;-74
2021/11/27 09:45:05;;;;;;;0.97;0.27;;;;;;;;;;5000749;28;20215;-74
2021/11/27 09:47:32;;;;;;;1.60;0.70;;;;;;;;;;5001468;28;20228;-73
2021/11/27 09:50:01;;;;;;;1.63;1.10;;;;;;;;;;5000583;28;20900;-74
2021/11/27 09:52:27;;;;;;;1.47;0.80;;;;;;;;;;5001606;28;20219;-74
2021/11/27 09:54:54;;;;;;;1.20;0.90;;;;;;;;;;5000499;28;20219;-74
2021/11/27 09:57:20;;;;;;;3.60;1.10;;;;;;;;;;5000776;28;20781;-74
2021/11/27 09:59:48;;;;;;;2.70;1.30;;;;;;;;;;4999925;28;20253;-75
2021/11/27 10:02:18;;;;;;;2.17;1.30;;;;;;;;;;5000587;28;20317;-75
2021/11/27 10:04:52;;;;;;;2.73;1.17;;;;;;;;;;5000180;28;20715;-75
2021/11/27 10:07:20;;;;;;;2.33;1.10;;;;;;;;;;5000547;28;20212;-75
2021/11/27 10:09:47;;;;;;;1.87;1.17;;;;;;;;;;5000496;28;20232;-75
2021/11/27 10:12:14;;;;;;;1.87;1.10;;;;;;;;;;4999889;28;20214;-75
2021/11/27 10:14:41;;;;;;;2.03;1.13;;;;;;;;;;5001121;28;20234;-75
2021/11/27 10:17:12;;;;;;;1.27;1.17;;;;;;;;;;4999022;28;20875;-75
2021/11/27 10:19:49;;;;;;;1.50;0.90;;;;;;;;;;5000647;28;20199;-73
2021/11/27 10:22:19;;;;;;;2.80;1.00;;;;;;;;;;4999182;28;20241;-76
2021/11/27 10:24:47;;;;;;;1.27;1.10;;;;;;;;;;5000898;28;20217;-74
2021/11/27 10:27:21;;;;;;;2.47;1.30;;;;;;;;;;4999003;28;20648;-74
2021/11/27 10:30:04;;;;;;;1.47;1.33;;;;;;;;;;5000558;28;20302;-74
2021/11/27 10:32:33;;;;;;;1.77;1.20;;;;;;;;;;4998579;28;20223;-74
2021/11/27 10:35:01;;;;;;;2.67;1.20;;;;;;;;;;4999915;28;20258;-74
2021/11/27 10:37:30;;;;;;;2.30;1.33;;;;;;;;;;5000231;28;20309;-74
2021/11/27 10:40:02;;;;;;;2.00;1.10;;;;;;;;;;5000392;28;20216;-74
2021/11/27 10:42:29;;;;;;;1.90;0.90;;;;;;;;;;4999803;28;20219;-74
2021/11/27 10:44:56;;;;;;;2.37;1.20;;;;;;;;;;4999151;28;20216;-74
2021/11/27 10:47:23;;;;;;;2.27;1.20;;;;;;;;;;5000032;28;21001;-75
2021/11/27 10:49:51;;;;;;;1.00;0.80;;;;;;;;;;4999516;28;20223;-74
2021/11/27 10:52:20;;;;;;;1.63;1.30;;;;;;;;;;4999404;28;21074;-74
2021/11/27 10:54:49;;;;;;;1.07;0.70;;;;;;;;;;4999560;28;20211;-74
2021/11/27 10:57:34;;;;;;;1.27;0.73;;;;;;;;;;5000285;28;21232;-74
2021/11/27 11:00:07;;;;;;;0.73;0.57;;;;;;;;;;4999698;28;20612;-74
2021/11/27 11:02:35;;;;;;;0.80;0.60;;;;;;;;;;4999429;28;20706;-75
2021/11/27 11:05:09;;;;;;;1.47;0.97;;;;;;;;;;4999937;28;20299;-74
2021/11/27 11:07:37;;;;;;;0.97;0.53;;;;;;;;;;4999444;28;20235;-74
2021/11/27 11:10:20;;;;;;;1.20;0.70;;;;;;;;;;5000168;28;20231;-75
2021/11/27 11:12:50;;;;;;;1.20;0.77;;;;;;;;;;4997630;28;20220;-75
2021/11/27 11:15:20;;;;;;;1.03;0.90;;;;;;;;;;4999719;28;20240;-75
2021/11/27 11:17:48;;;;;;;2.90;1.03;;;;;;;;;;4998259;28;20238;-75
2021/11/27 11:20:18;;;;;;;1.60;1.13;;;;;;;;;;4998836;28;20217;-75
2021/11/27 11:22:59;;;;;;;1.20;1.10;;;;;;;;;;4999410;28;20343;-75
2021/11/27 11:25:26;;;;;;;2.20;1.50;;;;;;;;;;4998851;28;20211;-75
2021/11/27 11:27:53;;;;;;;2.57;1.43;;;;;;;;;;4999638;28;20222;-75
2021/11/27 11:30:21;;;;;;;3.53;2.03;;;;;;;;;;4997872;28;20235;-75
2021/11/27 11:32:47;;;;;;;3.60;2.17;;;;;;;;;;4999020;28;20290;-75
2021/11/27 11:35:14;;;;;;;4.67;2.23;;;;;;;;;;4998259;28;20266;-76
2021/11/27 11:37:40;;;;;;;4.07;2.60;;;;;;;;;;4999719;28;20303;-76
2021/11/27 11:40:10;;;;;;;4.40;2.40;;;;;;;;;;4997703;28;21021;-75
2021/11/27 11:42:37;;;;;;;4.27;3.33;;;;;;;;;;4998923;28;20422;-75
2021/11/27 11:45:04;;;;;;;5.10;3.57;;;;;;;;;;4997966;28;20227;-75
2021/11/27 11:47:30;;;;;;;9.70;4.00;;;;;;;;;;4998151;28;20228;-75
2021/11/27 11:50:00;;;;;;;7.10;3.93;;;;;;;;;;4998726;28;20212;-75
2021/11/27 11:52:32;;;;;;;6.80;4.60;;;;;;;;;;4998408;28;20560;-75
2021/11/27 11:55:01;;;;;;;10.30;4.97;;;;;;;;;;4999092;28;20600;-75
2021/11/27 11:57:44;;;;;;;8.27;4.50;;;;;;;;;;4998407;28;20216;-75
2021/11/27 12:00:29;;;;;;;8.20;4.50;;;;;;;;;;4998361;28;20211;-75
2021/11/27 12:03:08;;;;;;;10.67;5.10;;;;;;;;;;4997433;28;20252;-75
2021/11/27 12:05:35;;;;;;;10.70;4.73;;;;;;;;;;4997302;28;20216;-75
2021/11/27 12:08:05;;;;;;;7.17;3.97;;;;;;;;;;4997845;28;20226;-76
2021/11/27 12:10:40;;;;;;;9.60;5.47;;;;;;;;;;4998347;28;20235;-76
2021/11/27 12:13:32;;;;;;;9.13;5.93;;;;;;;;;;4998564;28;20636;-76
2021/11/27 12:16:10;;;;;;;10.90;5.00;;;;;;;;;;4997964;28;20219;-76
2021/11/27 12:18:55;;;;;;;13.57;5.67;;;;;;;;;;4998184;28;20259;-76
2021/11/27 12:21:22;;;;;;;12.33;6.83;;;;;;;;;;4997246;28;20208;-76
2021/11/27 12:23:50;;;;;;;12.60;6.43;;;;;;;;;;4998663;28;20208;-76
2021/11/27 12:26:25;;;;;;;13.40;6.90;;;;;;;;;;4997543;28;20243;-76
2021/11/27 12:29:15;;;;;;;14.60;6.87;;;;;;;;;;4997759;28;20310;-76
2021/11/27 12:31:50;;;;;;;12.07;5.63;;;;;;;;;;4998816;28;20234;-77
2021/11/27 12:34:43;;;;;;;9.80;5.53;;;;;;;;;;4996972;28;20705;-77
2021/11/27 12:37:28;;;;;;;12.93;5.90;;;;;;;;;;4997895;28;20342;-77
2021/11/27 12:39:55;;;;;;;12.30;5.90;;;;;;;;;;4997910;28;20230;-77
2021/11/27 12:42:33;;;;;;;11.73;6.00;;;;;;;;;;4997622;28;20595;-76
2021/11/27 12:45:01;;;;;;;13.43;6.43;;;;;;;;;;4998560;28;20809;-76
2021/11/27 12:47:36;;;;;;;9.17;3.50;;;;;;;;;;4998424;28;20228;-76
2021/11/27 12:50:09;;;;;;;12.43;4.90;;;;;;;;;;4997950;28;20207;-77
2021/11/27 12:52:40;;;;;;;13.00;5.70;;;;;;;;;;4998212;28;20208;-77
2021/11/27 12:55:32;;;;;;;18.63;5.30;;;;;;;;;;4998162;28;20246;-77
2021/11/27 12:57:59;;;;;;;13.70;5.87;;;;;;;;;;5003988;28;20215;-77
2021/11/27 13:00:30;;;;;;;15.77;5.37;;;;;;;;;;5004471;28;20208;-77
2021/11/27 13:03:01;;;;;;;11.93;4.60;;;;;;;;;;5004125;28;20223;-77
2021/11/27 13:05:29;;;;;;;10.97;5.13;;;;;;;;;;5003508;28;20277;-77
2021/11/27 13:07:56;;;;;;;7.57;4.00;;;;;;;;;;5004812;28;20212;-77
2021/11/27 13:10:23;;;;;;;14.03;4.77;;;;;;;;;;5003407;28;20278;-77
2021/11/27 13:12:54;;;;;;;12.20;3.97;;;;;;;;;;5004913;28;20203;-77
2021/11/27 13:15:21;;;;;;;13.63;5.00;;;;;;;;;;5003692;28;20215;-78
2021/11/27 13:18:08;;;;;;;14.40;4.83;;;;;;;;;;5005000;28;20929;-77
2021/11/27 13:20:43;;;;;;;19.63;4.73;;;;;;;;;;5003534;28;20222;-77
2021/11/27 13:23:09;;;;;;;10.73;4.90;;;;;;;;;;5004567;28;20210;-78
2021/11/27 13:25:40;;;;;;;15.60;5.23;;;;;;;;;;5004212;28;20614;-77
2021/11/27 13:28:06;;;;;;;15.40;4.83;;;;;;;;;;5003189;28;20319;-77
2021/11/27 13:30:38;;;;;;;17.27;5.07;;;;;;;;;;5004284;28;20226;-77
2021/11/27 13:33:05;;;;;;;10.47;3.97;;;;;;;;;;5003792;28;20254;-77
2021/11/27 13:35:37;;;;;;;14.97;4.40;;;;;;;;;;5004459;28;20216;-77
2021/11/27 13:38:04;;;;;;;12.67;4.07;;;;;;;;;;5003676;28;20741;-77
2021/11/27 13:40:33;;;;;;;18.23;4.40;;;;;;;;;;5004332;28;20208;-77
2021/11/27 13:43:04;;;;;;;8.43;3.40;;;;;;;;;;5003481;28;20211;-77
2021/11/27 13:45:31;;;;;;;9.43;3.50;;;;;;;;;;5004792;28;20204;-77
2021/11/27 13:47:59;;;;;;;14.50;4.77;;;;;;;;;;5002961;28;20257;-77
2021/11/27 13:50:26;;;;;;;12.30;5.37;;;;;;;;;;5004137;28;20207;-77
2021/11/27 13:52:54;;;;;;;10.97;4.53;;;;;;;;;;5003580;28;20293;-77
2021/11/27 13:55:23;;;;;;;12.50;5.03;;;;;;;;;;5003531;28;20215;-77
2021/11/27 13:57:53;;;;;;;16.63;5.70;;;;;;;;;;5003413;28;20382;-78
2021/11/27 14:00:23;;;;;;;11.47;5.07;;;;;;;;;;5003822;28;20866;-77
2021/11/27 14:02:56;;;;;;;13.20;5.60;;;;;;;;;;5004058;28;20309;-77
2021/11/27 14:05:27;;;;;;;10.57;5.17;;;;;;;;;;5003451;28;20226;-77
2021/11/27 14:07:56;;;;;;;8.43;5.30;;;;;;;;;;5001513;28;20655;-77
2021/11/27 14:10:24;;;;;;;11.77;4.83;;;;;;;;;;4999503;28;20217;-76
2021/11/27 14:12:52;;;;;;;8.43;4.37;;;;;;;;;;5001182;28;20675;-77
2021/11/27 14:15:21;;;;;;;8.23;4.60;;;;;;;;;;4999352;28;20295;-77
2021/11/27 14:18:06;;;;;;;9.77;4.47;;;;;;;;;;5000607;28;20223;-77
2021/11/27 14:20:36;;;;;;;11.23;4.47;;;;;;;;;;5001085;28;20211;-77
2021/11/27 14:23:06;;;;;;;7.10;3.67;;;;;;;;;;5000776;28;20445;-77
2021/11/27 14:25:35;;;;;;;6.77;3.97;;;;;;;;;;5001141;28;20200;-77
2021/11/27 14:28:03;;;;;;;8.40;4.10;;;;;;;;;;5000390;28;20214;-77
2021/11/27 14:30:33;;;;;;;8.93;3.93;;;;;;;;;;5000983;28;20299;-77
2021/11/27 14:33:21;;;;;;;6.63;4.20;;;;;;;;;;4999644;28;20227;-77
2021/11/27 14:36:01;;;;;;;4.23;3.63;;;;;;;;;;5001945;28;20216;-77
2021/11/27 14:38:47;;;;;;;7.47;3.73;;;;;;;;;;4999746;28;20303;-77
2021/11/27 14:41:17;;;;;;;4.33;2.73;;;;;;;;;;4999391;28;20216;-78
2021/11/27 14:43:57;;;;;;;3.87;2.23;;;;;;;;;;4999529;28;20208;-77